sensor_id;sensor_type;location;lat;lon;timestamp;P1;durP1;ratioP1;P2;durP2;ratioP2
14118;SDS011;7138;49.246;9.100;2022-09-17T00:01:30;2.10;;;0.77;;
14118;SDS011;7138;49.246;9.100;2022-09-17T00:03:57;3.10;;;0.70;;
14118;SDS011;7138;49.246;9.100;2022-09-17T00:06:28;1.98;;;0.70;;
14118;SDS011;7138;49.246;9.100;2022-09-17T00:08:56;2.40;;;0.70;;
14118;SDS011;7138;49.246;9.100;2022-09-17T00:11:23;2.72;;;0.73;;
14118;SDS011;7138;49.246;9.100;2022-09-17T00:13:53;3.00;;;0.70;;
14118;SDS011;7138;49.246;9.100;2022-09-17T00:16:23;1.75;;;0.70;;
14118;SDS011;7138;49.246;9.100;2022-09-17T00:18:52;4.78;;;0.60;;
14118;SDS011;7138;49.246;9.100;2022-09-17T00:21:19;2.40;;;0.63;;
14118;SDS011;7138;49.246;9.100;2022-09-17T00:23:46;2.63;;;0.70;;
14118;SDS011;7138;49.246;9.100;2022-09-17T00:26:12;3.53;;;0.75;;
14118;SDS011;7138;49.246;9.100;2022-09-17T00:28:38;2.05;;;0.70;;
14118;SDS011;7138;49.246;9.100;2022-09-17T00:31:07;2.90;;;0.60;;
14118;SDS011;7138;49.246;9.100;2022-09-17T00:33:34;3.72;;;0.70;;
14118;SDS011;7138;49.246;9.100;2022-09-17T00:36:01;3.67;;;0.70;;
14118;SDS011;7138;49.246;9.100;2022-09-17T00:38:29;3.65;;;0.90;;
14118;SDS011;7138;49.246;9.100;2022-09-17T00:40:55;4.50;;;0.82;;
14118;SDS011;7138;49.246;9.100;2022-09-17T00:43:32;2.45;;;0.70;;
14118;SDS011;7138;49.246;9.100;2022-09-17T00:46:02;3.15;;;0.95;;
14118;SDS011;7138;49.246;9.100;2022-09-17T00:48:36;3.03;;;1.20;;
14118;SDS011;7138;49.246;9.100;2022-09-17T00:51:02;4.03;;;1.00;;
14118;SDS011;7138;49.246;9.100;2022-09-17T00:53:34;3.88;;;0.70;;
14118;SDS011;7138;49.246;9.100;2022-09-17T00:56:02;3.60;;;1.23;;
14118;SDS011;7138;49.246;9.100;2022-09-17T00:58:36;2.58;;;0.93;;
14118;SDS011;7138;49.246;9.100;2022-09-17T01:01:03;3.13;;;0.95;;
14118;SDS011;7138;49.246;9.100;2022-09-17T01:03:31;6.70;;;0.95;;
14118;SDS011;7138;49.246;9.100;2022-09-17T01:05:58;5.30;;;1.10;;
14118;SDS011;7138;49.246;9.100;2022-09-17T01:08:39;2.75;;;0.90;;
14118;SDS011;7138;49.246;9.100;2022-09-17T01:11:30;3.80;;;1.20;;
14118;SDS011;7138;49.246;9.100;2022-09-17T01:14:16;2.30;;;0.80;;
14118;SDS011;7138;49.246;9.100;2022-09-17T01:17:03;7.70;;;1.05;;
14118;SDS011;7138;49.246;9.100;2022-09-17T01:20:03;3.95;;;1.15;;
14118;SDS011;7138;49.246;9.100;2022-09-17T01:23:10;4.15;;;1.00;;
14118;SDS011;7138;49.246;9.100;2022-09-17T01:26:14;2.22;;;0.90;;
14118;SDS011;7138;49.246;9.100;2022-09-17T01:29:16;2.70;;;0.90;;
14118;SDS011;7138;49.246;9.100;2022-09-17T01:32:06;5.53;;;1.00;;
14118;SDS011;7138;49.246;9.100;2022-09-17T01:34:40;5.35;;;1.63;;
14118;SDS011;7138;49.246;9.100;2022-09-17T01:37:21;3.22;;;0.80;;
14118;SDS011;7138;49.246;9.100;2022-09-17T01:39:58;3.47;;;0.88;;
14118;SDS011;7138;49.246;9.100;2022-09-17T01:42:33;4.93;;;0.90;;
14118;SDS011;7138;49.246;9.100;2022-09-17T01:45:11;2.35;;;0.73;;
14118;SDS011;7138;49.246;9.100;2022-09-17T01:47:43;4.47;;;1.00;;
14118;SDS011;7138;49.246;9.100;2022-09-17T01:50:19;3.15;;;1.00;;
14118;SDS011;7138;49.246;9.100;2022-09-17T01:52:51;4.10;;;1.00;;
14118;SDS011;7138;49.246;9.100;2022-09-17T01:55:20;2.72;;;0.82;;
14118;SDS011;7138;49.246;9.100;2022-09-17T01:57:55;3.72;;;1.08;;
14118;SDS011;7138;49.246;9.100;2022-09-17T02:00:27;3.20;;;0.82;;
14118;SDS011;7138;49.246;9.100;2022-09-17T02:02:56;2.90;;;0.73;;
14118;SDS011;7138;49.246;9.100;2022-09-17T02:05:31;2.55;;;0.65;;
14118;SDS011;7138;49.246;9.100;2022-09-17T02:08:04;3.40;;;0.73;;
14118;SDS011;7138;49.246;9.100;2022-09-17T02:10:35;3.92;;;0.95;;
14118;SDS011;7138;49.246;9.100;2022-09-17T02:13:09;3.92;;;0.98;;
14118;SDS011;7138;49.246;9.100;2022-09-17T02:15:46;6.38;;;0.88;;
14118;SDS011;7138;49.246;9.100;2022-09-17T02:18:23;3.45;;;1.08;;
14118;SDS011;7138;49.246;9.100;2022-09-17T02:20:59;7.65;;;1.23;;
14118;SDS011;7138;49.246;9.100;2022-09-17T02:23:33;4.30;;;0.77;;
14118;SDS011;7138;49.246;9.100;2022-09-17T02:26:08;2.60;;;0.90;;
14118;SDS011;7138;49.246;9.100;2022-09-17T02:28:40;5.38;;;0.90;;
14118;SDS011;7138;49.246;9.100;2022-09-17T02:31:12;4.60;;;1.00;;
14118;SDS011;7138;49.246;9.100;2022-09-17T02:33:40;5.60;;;1.10;;
14118;SDS011;7138;49.246;9.100;2022-09-17T02:36:12;4.28;;;1.05;;
14118;SDS011;7138;49.246;9.100;2022-09-17T02:38:39;3.30;;;0.90;;
14118;SDS011;7138;49.246;9.100;2022-09-17T02:43:40;4.95;;;0.90;;
14118;SDS011;7138;49.246;9.100;2022-09-17T02:46:22;4.68;;;0.90;;
14118;SDS011;7138;49.246;9.100;2022-09-17T02:49:11;3.75;;;0.85;;
14118;SDS011;7138;49.246;9.100;2022-09-17T02:51:55;4.63;;;0.98;;
14118;SDS011;7138;49.246;9.100;2022-09-17T02:54:37;3.30;;;0.90;;
14118;SDS011;7138;49.246;9.100;2022-09-17T02:57:18;4.78;;;1.13;;
14118;SDS011;7138;49.246;9.100;2022-09-17T02:59:55;7.88;;;1.13;;
14118;SDS011;7138;49.246;9.100;2022-09-17T03:02:30;5.82;;;1.00;;
14118;SDS011;7138;49.246;9.100;2022-09-17T03:05:04;4.93;;;1.20;;
14118;SDS011;7138;49.246;9.100;2022-09-17T03:07:32;3.40;;;1.00;;
14118;SDS011;7138;49.246;9.100;2022-09-17T03:09:58;3.83;;;1.17;;
14118;SDS011;7138;49.246;9.100;2022-09-17T03:12:24;4.85;;;1.55;;
14118;SDS011;7138;49.246;9.100;2022-09-17T03:14:51;3.45;;;1.10;;
14118;SDS011;7138;49.246;9.100;2022-09-17T03:17:17;3.70;;;1.10;;
14118;SDS011;7138;49.246;9.100;2022-09-17T03:19:43;4.75;;;1.10;;
14118;SDS011;7138;49.246;9.100;2022-09-17T03:22:10;7.90;;;1.20;;
14118;SDS011;7138;49.246;9.100;2022-09-17T03:24:36;4.05;;;1.02;;
14118;SDS011;7138;49.246;9.100;2022-09-17T03:27:02;7.35;;;1.35;;
14118;SDS011;7138;49.246;9.100;2022-09-17T03:29:28;6.15;;;1.02;;
14118;SDS011;7138;49.246;9.100;2022-09-17T03:31:54;7.80;;;2.38;;
14118;SDS011;7138;49.246;9.100;2022-09-17T03:34:20;5.82;;;1.33;;
14118;SDS011;7138;49.246;9.100;2022-09-17T03:36:46;7.60;;;1.42;;
14118;SDS011;7138;49.246;9.100;2022-09-17T03:39:13;7.32;;;1.40;;
14118;SDS011;7138;49.246;9.100;2022-09-17T03:41:39;3.25;;;1.08;;
14118;SDS011;7138;49.246;9.100;2022-09-17T03:44:05;4.55;;;1.20;;
14118;SDS011;7138;49.246;9.100;2022-09-17T03:46:31;7.45;;;1.25;;
14118;SDS011;7138;49.246;9.100;2022-09-17T03:48:56;4.35;;;1.10;;
14118;SDS011;7138;49.246;9.100;2022-09-17T03:51:22;4.90;;;1.30;;
14118;SDS011;7138;49.246;9.100;2022-09-17T03:53:49;6.13;;;1.88;;
14118;SDS011;7138;49.246;9.100;2022-09-17T03:56:16;6.10;;;1.25;;
14118;SDS011;7138;49.246;9.100;2022-09-17T03:58:42;4.82;;;1.25;;
14118;SDS011;7138;49.246;9.100;2022-09-17T04:01:07;3.40;;;1.20;;
14118;SDS011;7138;49.246;9.100;2022-09-17T04:03:34;5.07;;;1.35;;
14118;SDS011;7138;49.246;9.100;2022-09-17T04:05:59;7.90;;;1.40;;
14118;SDS011;7138;49.246;9.100;2022-09-17T04:08:25;5.28;;;1.30;;
14118;SDS011;7138;49.246;9.100;2022-09-17T04:10:51;3.72;;;1.10;;
14118;SDS011;7138;49.246;9.100;2022-09-17T04:13:19;6.78;;;1.65;;
14118;SDS011;7138;49.246;9.100;2022-09-17T04:15:45;4.68;;;1.52;;
14118;SDS011;7138;49.246;9.100;2022-09-17T04:18:11;6.25;;;1.45;;
14118;SDS011;7138;49.246;9.100;2022-09-17T04:20:38;7.25;;;1.75;;
14118;SDS011;7138;49.246;9.100;2022-09-17T04:23:04;6.10;;;1.25;;
14118;SDS011;7138;49.246;9.100;2022-09-17T04:25:34;4.47;;;1.50;;
14118;SDS011;7138;49.246;9.100;2022-09-17T04:28:00;6.15;;;1.40;;
14118;SDS011;7138;49.246;9.100;2022-09-17T04:30:27;5.95;;;1.58;;
14118;SDS011;7138;49.246;9.100;2022-09-17T04:32:53;4.57;;;1.50;;
14118;SDS011;7138;49.246;9.100;2022-09-17T04:35:19;10.32;;;2.00;;
14118;SDS011;7138;49.246;9.100;2022-09-17T04:37:50;3.00;;;1.30;;
14118;SDS011;7138;49.246;9.100;2022-09-17T04:40:17;7.82;;;1.83;;
14118;SDS011;7138;49.246;9.100;2022-09-17T04:42:43;4.00;;;1.30;;
14118;SDS011;7138;49.246;9.100;2022-09-17T04:45:09;4.72;;;1.50;;
14118;SDS011;7138;49.246;9.100;2022-09-17T04:47:38;2.67;;;1.30;;
14118;SDS011;7138;49.246;9.100;2022-09-17T04:50:04;4.65;;;1.60;;
14118;SDS011;7138;49.246;9.100;2022-09-17T04:52:31;4.40;;;1.63;;
14118;SDS011;7138;49.246;9.100;2022-09-17T04:54:57;5.22;;;1.30;;
14118;SDS011;7138;49.246;9.100;2022-09-17T04:57:23;6.10;;;1.50;;
14118;SDS011;7138;49.246;9.100;2022-09-17T04:59:50;6.15;;;1.55;;
14118;SDS011;7138;49.246;9.100;2022-09-17T05:02:16;5.97;;;1.58;;
14118;SDS011;7138;49.246;9.100;2022-09-17T05:04:43;3.17;;;1.30;;
14118;SDS011;7138;49.246;9.100;2022-09-17T05:07:09;3.40;;;1.30;;
14118;SDS011;7138;49.246;9.100;2022-09-17T05:09:34;4.10;;;1.13;;
14118;SDS011;7138;49.246;9.100;2022-09-17T05:12:00;8.60;;;2.95;;
14118;SDS011;7138;49.246;9.100;2022-09-17T05:14:27;4.07;;;1.60;;
14118;SDS011;7138;49.246;9.100;2022-09-17T05:16:52;6.18;;;1.48;;
14118;SDS011;7138;49.246;9.100;2022-09-17T05:19:18;5.22;;;1.38;;
14118;SDS011;7138;49.246;9.100;2022-09-17T05:21:45;7.68;;;1.80;;
14118;SDS011;7138;49.246;9.100;2022-09-17T05:24:11;5.28;;;1.80;;
14118;SDS011;7138;49.246;9.100;2022-09-17T05:26:37;5.05;;;1.50;;
14118;SDS011;7138;49.246;9.100;2022-09-17T05:29:03;7.93;;;2.05;;
14118;SDS011;7138;49.246;9.100;2022-09-17T05:31:29;7.43;;;1.40;;
14118;SDS011;7138;49.246;9.100;2022-09-17T05:33:56;4.60;;;1.20;;
14118;SDS011;7138;49.246;9.100;2022-09-17T05:36:22;8.25;;;1.30;;
14118;SDS011;7138;49.246;9.100;2022-09-17T05:38:49;4.30;;;1.45;;
14118;SDS011;7138;49.246;9.100;2022-09-17T05:41:15;7.15;;;1.63;;
14118;SDS011;7138;49.246;9.100;2022-09-17T05:43:41;4.88;;;1.55;;
14118;SDS011;7138;49.246;9.100;2022-09-17T05:46:07;4.35;;;1.45;;
14118;SDS011;7138;49.246;9.100;2022-09-17T05:48:33;10.90;;;1.50;;
14118;SDS011;7138;49.246;9.100;2022-09-17T05:50:59;5.82;;;1.52;;
14118;SDS011;7138;49.246;9.100;2022-09-17T05:53:25;5.88;;;1.90;;
14118;SDS011;7138;49.246;9.100;2022-09-17T05:55:55;5.18;;;1.60;;
14118;SDS011;7138;49.246;9.100;2022-09-17T05:58:22;4.47;;;1.77;;
14118;SDS011;7138;49.246;9.100;2022-09-17T06:00:48;5.20;;;1.77;;
14118;SDS011;7138;49.246;9.100;2022-09-17T06:03:14;7.18;;;1.88;;
14118;SDS011;7138;49.246;9.100;2022-09-17T06:05:44;11.55;;;1.90;;
14118;SDS011;7138;49.246;9.100;2022-09-17T06:08:18;9.00;;;1.88;;
14118;SDS011;7138;49.246;9.100;2022-09-17T06:10:44;6.35;;;1.60;;
14118;SDS011;7138;49.246;9.100;2022-09-17T06:13:11;7.72;;;2.00;;
14118;SDS011;7138;49.246;9.100;2022-09-17T06:15:37;5.82;;;2.10;;
14118;SDS011;7138;49.246;9.100;2022-09-17T06:18:03;7.47;;;2.08;;
14118;SDS011;7138;49.246;9.100;2022-09-17T06:20:28;6.20;;;2.00;;
14118;SDS011;7138;49.246;9.100;2022-09-17T06:22:55;7.95;;;1.98;;
14118;SDS011;7138;49.246;9.100;2022-09-17T06:25:21;5.53;;;2.10;;
14118;SDS011;7138;49.246;9.100;2022-09-17T06:27:47;5.47;;;2.03;;
14118;SDS011;7138;49.246;9.100;2022-09-17T06:30:15;4.68;;;1.73;;
14118;SDS011;7138;49.246;9.100;2022-09-17T06:32:41;5.10;;;2.00;;
14118;SDS011;7138;49.246;9.100;2022-09-17T06:35:07;6.30;;;2.30;;
14118;SDS011;7138;49.246;9.100;2022-09-17T06:37:34;6.32;;;2.28;;
14118;SDS011;7138;49.246;9.100;2022-09-17T06:40:04;10.55;;;2.38;;
14118;SDS011;7138;49.246;9.100;2022-09-17T06:42:31;5.22;;;2.22;;
14118;SDS011;7138;49.246;9.100;2022-09-17T06:44:57;6.82;;;2.20;;
14118;SDS011;7138;49.246;9.100;2022-09-17T06:47:24;8.10;;;2.17;;
14118;SDS011;7138;49.246;9.100;2022-09-17T06:49:50;7.05;;;2.45;;
14118;SDS011;7138;49.246;9.100;2022-09-17T06:52:17;5.25;;;2.10;;
14118;SDS011;7138;49.246;9.100;2022-09-17T06:54:42;8.70;;;2.22;;
14118;SDS011;7138;49.246;9.100;2022-09-17T06:57:08;8.77;;;2.55;;
14118;SDS011;7138;49.246;9.100;2022-09-17T06:59:34;7.95;;;2.13;;
14118;SDS011;7138;49.246;9.100;2022-09-17T07:02:00;8.68;;;2.70;;
14118;SDS011;7138;49.246;9.100;2022-09-17T07:04:27;6.53;;;2.22;;
14118;SDS011;7138;49.246;9.100;2022-09-17T07:06:53;6.25;;;2.30;;
14118;SDS011;7138;49.246;9.100;2022-09-17T07:09:18;9.98;;;2.58;;
14118;SDS011;7138;49.246;9.100;2022-09-17T07:11:44;8.43;;;2.42;;
14118;SDS011;7138;49.246;9.100;2022-09-17T07:14:10;4.38;;;2.20;;
14118;SDS011;7138;49.246;9.100;2022-09-17T07:16:36;5.32;;;2.22;;
14118;SDS011;7138;49.246;9.100;2022-09-17T07:19:02;10.93;;;2.92;;
14118;SDS011;7138;49.246;9.100;2022-09-17T07:21:30;5.65;;;2.55;;
14118;SDS011;7138;49.246;9.100;2022-09-17T07:23:56;8.73;;;2.85;;
14118;SDS011;7138;49.246;9.100;2022-09-17T07:26:23;11.63;;;2.70;;
14118;SDS011;7138;49.246;9.100;2022-09-17T07:28:49;6.35;;;2.00;;
14118;SDS011;7138;49.246;9.100;2022-09-17T07:31:15;5.85;;;2.60;;
14118;SDS011;7138;49.246;9.100;2022-09-17T07:33:41;9.05;;;2.38;;
14118;SDS011;7138;49.246;9.100;2022-09-17T07:36:08;8.32;;;2.58;;
14118;SDS011;7138;49.246;9.100;2022-09-17T07:38:38;8.57;;;2.60;;
14118;SDS011;7138;49.246;9.100;2022-09-17T07:41:05;8.18;;;2.03;;
14118;SDS011;7138;49.246;9.100;2022-09-17T07:43:37;7.03;;;1.70;;
14118;SDS011;7138;49.246;9.100;2022-09-17T07:46:03;5.28;;;2.05;;
14118;SDS011;7138;49.246;9.100;2022-09-17T07:48:31;8.93;;;2.30;;
14118;SDS011;7138;49.246;9.100;2022-09-17T07:50:58;6.18;;;2.00;;
14118;SDS011;7138;49.246;9.100;2022-09-17T07:53:24;6.80;;;1.70;;
14118;SDS011;7138;49.246;9.100;2022-09-17T07:55:52;6.95;;;1.95;;
14118;SDS011;7138;49.246;9.100;2022-09-17T07:58:20;7.82;;;1.85;;
14118;SDS011;7138;49.246;9.100;2022-09-17T08:00:48;8.75;;;2.28;;
14118;SDS011;7138;49.246;9.100;2022-09-17T08:03:14;8.38;;;2.80;;
14118;SDS011;7138;49.246;9.100;2022-09-17T08:05:40;7.07;;;2.00;;
14118;SDS011;7138;49.246;9.100;2022-09-17T08:08:06;6.35;;;2.15;;
14118;SDS011;7138;49.246;9.100;2022-09-17T08:10:32;6.03;;;1.75;;
14118;SDS011;7138;49.246;9.100;2022-09-17T08:12:59;7.13;;;2.35;;
14118;SDS011;7138;49.246;9.100;2022-09-17T08:15:25;7.38;;;2.05;;
14118;SDS011;7138;49.246;9.100;2022-09-17T08:17:51;7.88;;;1.90;;
14118;SDS011;7138;49.246;9.100;2022-09-17T08:20:17;6.20;;;1.92;;
14118;SDS011;7138;49.246;9.100;2022-09-17T08:22:44;7.65;;;1.83;;
14118;SDS011;7138;49.246;9.100;2022-09-17T08:25:10;8.60;;;1.95;;
14118;SDS011;7138;49.246;9.100;2022-09-17T08:27:36;5.80;;;1.75;;
14118;SDS011;7138;49.246;9.100;2022-09-17T08:30:07;8.32;;;2.03;;
14118;SDS011;7138;49.246;9.100;2022-09-17T08:32:34;7.97;;;1.77;;
14118;SDS011;7138;49.246;9.100;2022-09-17T08:34:59;7.80;;;1.83;;
14118;SDS011;7138;49.246;9.100;2022-09-17T08:37:26;7.38;;;1.65;;
14118;SDS011;7138;49.246;9.100;2022-09-17T08:39:55;4.78;;;1.95;;
14118;SDS011;7138;49.246;9.100;2022-09-17T08:42:23;7.50;;;2.55;;
14118;SDS011;7138;49.246;9.100;2022-09-17T08:44:56;7.97;;;2.35;;
14118;SDS011;7138;49.246;9.100;2022-09-17T08:47:28;10.35;;;2.20;;
14118;SDS011;7138;49.246;9.100;2022-09-17T08:50:01;8.23;;;2.05;;
14118;SDS011;7138;49.246;9.100;2022-09-17T08:55:49;8.32;;;2.33;;
14118;SDS011;7138;49.246;9.100;2022-09-17T08:58:30;5.97;;;1.90;;
14118;SDS011;7138;49.246;9.100;2022-09-17T09:01:11;7.30;;;2.00;;
14118;SDS011;7138;49.246;9.100;2022-09-17T09:03:57;9.27;;;2.03;;
14118;SDS011;7138;49.246;9.100;2022-09-17T09:07:07;6.85;;;1.75;;
14118;SDS011;7138;49.246;9.100;2022-09-17T09:09:38;6.82;;;1.98;;
14118;SDS011;7138;49.246;9.100;2022-09-17T09:12:15;11.15;;;3.33;;
14118;SDS011;7138;49.246;9.100;2022-09-17T09:14:50;8.02;;;1.90;;
14118;SDS011;7138;49.246;9.100;2022-09-17T09:17:24;7.30;;;1.80;;
14118;SDS011;7138;49.246;9.100;2022-09-17T09:19:58;8.77;;;2.10;;
14118;SDS011;7138;49.246;9.100;2022-09-17T09:22:29;6.25;;;1.80;;
14118;SDS011;7138;49.246;9.100;2022-09-17T09:25:19;8.80;;;1.50;;
14118;SDS011;7138;49.246;9.100;2022-09-17T09:27:51;10.05;;;1.63;;
14118;SDS011;7138;49.246;9.100;2022-09-17T09:30:35;7.70;;;1.63;;
14118;SDS011;7138;49.246;9.100;2022-09-17T09:33:14;5.93;;;1.27;;
14118;SDS011;7138;49.246;9.100;2022-09-17T09:35:50;6.28;;;1.50;;
14118;SDS011;7138;49.246;9.100;2022-09-17T09:38:18;8.40;;;2.03;;
14118;SDS011;7138;49.246;9.100;2022-09-17T09:40:56;10.85;;;1.73;;
14118;SDS011;7138;49.246;9.100;2022-09-17T09:43:33;5.28;;;1.10;;
14118;SDS011;7138;49.246;9.100;2022-09-17T09:46:12;8.55;;;1.35;;
14118;SDS011;7138;49.246;9.100;2022-09-17T09:49:01;10.27;;;2.00;;
14118;SDS011;7138;49.246;9.100;2022-09-17T09:51:46;8.57;;;1.60;;
14118;SDS011;7138;49.246;9.100;2022-09-17T09:54:32;5.45;;;1.40;;
14118;SDS011;7138;49.246;9.100;2022-09-17T09:57:17;6.78;;;1.40;;
14118;SDS011;7138;49.246;9.100;2022-09-17T10:02:47;6.43;;;1.73;;
14118;SDS011;7138;49.246;9.100;2022-09-17T10:05:19;7.35;;;1.42;;
14118;SDS011;7138;49.246;9.100;2022-09-17T10:07:47;7.97;;;1.40;;
14118;SDS011;7138;49.246;9.100;2022-09-17T10:10:13;10.63;;;1.85;;
14118;SDS011;7138;49.246;9.100;2022-09-17T10:12:39;6.03;;;0.90;;
14118;SDS011;7138;49.246;9.100;2022-09-17T10:15:20;5.40;;;1.50;;
14118;SDS011;7138;49.246;9.100;2022-09-17T10:17:52;5.50;;;1.20;;
14118;SDS011;7138;49.246;9.100;2022-09-17T10:20:47;6.65;;;1.42;;
14118;SDS011;7138;49.246;9.100;2022-09-17T10:23:20;5.68;;;1.25;;
14118;SDS011;7138;49.246;9.100;2022-09-17T10:25:49;5.97;;;1.50;;
14118;SDS011;7138;49.246;9.100;2022-09-17T10:28:22;6.38;;;1.25;;
14118;SDS011;7138;49.246;9.100;2022-09-17T10:30:57;4.70;;;1.35;;
14118;SDS011;7138;49.246;9.100;2022-09-17T10:33:27;6.18;;;1.20;;
14118;SDS011;7138;49.246;9.100;2022-09-17T10:36:00;6.25;;;1.40;;
14118;SDS011;7138;49.246;9.100;2022-09-17T10:38:32;9.15;;;1.70;;
14118;SDS011;7138;49.246;9.100;2022-09-17T10:41:08;5.88;;;1.20;;
14118;SDS011;7138;49.246;9.100;2022-09-17T10:43:40;6.63;;;1.13;;
14118;SDS011;7138;49.246;9.100;2022-09-17T10:46:07;5.63;;;1.20;;
14118;SDS011;7138;49.246;9.100;2022-09-17T10:48:40;6.93;;;1.35;;
14118;SDS011;7138;49.246;9.100;2022-09-17T10:51:10;8.07;;;1.30;;
14118;SDS011;7138;49.246;9.100;2022-09-17T10:54:03;5.15;;;1.00;;
14118;SDS011;7138;49.246;9.100;2022-09-17T10:57:06;5.05;;;1.02;;
14118;SDS011;7138;49.246;9.100;2022-09-17T10:59:46;3.65;;;0.80;;
14118;SDS011;7138;49.246;9.100;2022-09-17T11:06:11;5.20;;;1.05;;
14118;SDS011;7138;49.246;9.100;2022-09-17T11:09:19;4.03;;;0.80;;
14118;SDS011;7138;49.246;9.100;2022-09-17T11:12:00;6.43;;;0.90;;
14118;SDS011;7138;49.246;9.100;2022-09-17T11:14:48;3.47;;;0.80;;
14118;SDS011;7138;49.246;9.100;2022-09-17T11:17:26;3.10;;;0.88;;
14118;SDS011;7138;49.246;9.100;2022-09-17T11:20:18;6.28;;;1.00;;
14118;SDS011;7138;49.246;9.100;2022-09-17T11:22:59;5.95;;;1.00;;
14118;SDS011;7138;49.246;9.100;2022-09-17T11:25:50;4.57;;;1.00;;
14118;SDS011;7138;49.246;9.100;2022-09-17T11:28:32;5.72;;;1.00;;
14118;SDS011;7138;49.246;9.100;2022-09-17T11:31:20;4.55;;;1.20;;
14118;SDS011;7138;49.246;9.100;2022-09-17T11:34:04;4.88;;;0.90;;
14118;SDS011;7138;49.246;9.100;2022-09-17T11:36:49;4.28;;;0.90;;
14118;SDS011;7138;49.246;9.100;2022-09-17T11:39:24;5.25;;;1.00;;
14118;SDS011;7138;49.246;9.100;2022-09-17T11:41:59;5.05;;;1.15;;
14118;SDS011;7138;49.246;9.100;2022-09-17T11:44:31;4.35;;;0.80;;
14118;SDS011;7138;49.246;9.100;2022-09-17T11:47:06;3.60;;;0.85;;
14118;SDS011;7138;49.246;9.100;2022-09-17T11:49:41;4.97;;;1.02;;
14118;SDS011;7138;49.246;9.100;2022-09-17T11:52:17;3.63;;;0.80;;
14118;SDS011;7138;49.246;9.100;2022-09-17T11:54:51;4.72;;;1.10;;
14118;SDS011;7138;49.246;9.100;2022-09-17T11:57:26;6.72;;;1.35;;
14118;SDS011;7138;49.246;9.100;2022-09-17T11:59:59;5.93;;;1.40;;
14118;SDS011;7138;49.246;9.100;2022-09-17T12:02:37;5.05;;;1.00;;
14118;SDS011;7138;49.246;9.100;2022-09-17T12:05:16;5.50;;;1.08;;
14118;SDS011;7138;49.246;9.100;2022-09-17T12:07:48;10.88;;;1.30;;
14118;SDS011;7138;49.246;9.100;2022-09-17T12:10:31;14.38;;;2.38;;
14118;SDS011;7138;49.246;9.100;2022-09-17T12:13:10;8.15;;;1.40;;
14118;SDS011;7138;49.246;9.100;2022-09-17T12:15:48;7.93;;;1.50;;
14118;SDS011;7138;49.246;9.100;2022-09-17T12:18:26;11.50;;;1.80;;
14118;SDS011;7138;49.246;9.100;2022-09-17T12:21:03;8.15;;;1.70;;
14118;SDS011;7138;49.246;9.100;2022-09-17T12:23:35;5.85;;;1.38;;
14118;SDS011;7138;49.246;9.100;2022-09-17T12:26:12;6.72;;;1.10;;
14118;SDS011;7138;49.246;9.100;2022-09-17T12:28:58;8.68;;;1.35;;
14118;SDS011;7138;49.246;9.100;2022-09-17T12:31:31;11.60;;;1.45;;
14118;SDS011;7138;49.246;9.100;2022-09-17T12:34:16;6.45;;;1.17;;
14118;SDS011;7138;49.246;9.100;2022-09-17T12:37:01;5.53;;;0.82;;
14118;SDS011;7138;49.246;9.100;2022-09-17T12:39:43;5.57;;;1.40;;
14118;SDS011;7138;49.246;9.100;2022-09-17T12:42:46;6.70;;;1.45;;
14118;SDS011;7138;49.246;9.100;2022-09-17T12:45:47;8.23;;;1.60;;
14118;SDS011;7138;49.246;9.100;2022-09-17T12:48:44;7.30;;;1.50;;
14118;SDS011;7138;49.246;9.100;2022-09-17T12:51:56;5.30;;;1.30;;
14118;SDS011;7138;49.246;9.100;2022-09-17T12:54:39;4.07;;;1.00;;
14118;SDS011;7138;49.246;9.100;2022-09-17T12:57:37;8.75;;;1.50;;
14118;SDS011;7138;49.246;9.100;2022-09-17T13:00:14;4.70;;;0.90;;
14118;SDS011;7138;49.246;9.100;2022-09-17T13:02:43;5.05;;;1.08;;
14118;SDS011;7138;49.246;9.100;2022-09-17T13:05:24;5.20;;;1.35;;
14118;SDS011;7138;49.246;9.100;2022-09-17T13:08:19;6.70;;;1.13;;
14118;SDS011;7138;49.246;9.100;2022-09-17T13:11:29;8.10;;;1.00;;
14118;SDS011;7138;49.246;9.100;2022-09-17T13:14:27;4.30;;;0.80;;
14118;SDS011;7138;49.246;9.100;2022-09-17T13:17:20;4.78;;;1.08;;
14118;SDS011;7138;49.246;9.100;2022-09-17T13:19:59;6.07;;;1.10;;
14118;SDS011;7138;49.246;9.100;2022-09-17T13:22:42;4.30;;;1.23;;
14118;SDS011;7138;49.246;9.100;2022-09-17T13:25:13;8.50;;;1.25;;
14118;SDS011;7138;49.246;9.100;2022-09-17T13:27:41;5.53;;;0.90;;
14118;SDS011;7138;49.246;9.100;2022-09-17T13:30:09;6.18;;;0.88;;
14118;SDS011;7138;49.246;9.100;2022-09-17T13:32:49;4.13;;;0.85;;
14118;SDS011;7138;49.246;9.100;2022-09-17T13:38:14;5.25;;;0.90;;
14118;SDS011;7138;49.246;9.100;2022-09-17T13:40:43;6.28;;;0.82;;
14118;SDS011;7138;49.246;9.100;2022-09-17T13:43:10;5.00;;;0.93;;
14118;SDS011;7138;49.246;9.100;2022-09-17T13:48:36;6.47;;;0.60;;
14118;SDS011;7138;49.246;9.100;2022-09-17T13:54:16;3.13;;;0.60;;
14118;SDS011;7138;49.246;9.100;2022-09-17T13:56:46;3.65;;;0.70;;
14118;SDS011;7138;49.246;9.100;2022-09-17T13:59:27;2.75;;;0.50;;
14118;SDS011;7138;49.246;9.100;2022-09-17T14:01:55;5.60;;;2.00;;
14118;SDS011;7138;49.246;9.100;2022-09-17T14:04:34;3.58;;;0.40;;
14118;SDS011;7138;49.246;9.100;2022-09-17T14:09:59;5.32;;;0.80;;
14118;SDS011;7138;49.246;9.100;2022-09-17T14:12:52;4.05;;;0.68;;
14118;SDS011;7138;49.246;9.100;2022-09-17T14:15:57;3.95;;;0.70;;
14118;SDS011;7138;49.246;9.100;2022-09-17T14:18:41;4.85;;;0.98;;
14118;SDS011;7138;49.246;9.100;2022-09-17T14:21:23;3.70;;;0.77;;
14118;SDS011;7138;49.246;9.100;2022-09-17T14:23:59;4.82;;;0.82;;
14118;SDS011;7138;49.246;9.100;2022-09-17T14:26:34;6.32;;;1.10;;
14118;SDS011;7138;49.246;9.100;2022-09-17T14:29:33;2.50;;;0.70;;
14118;SDS011;7138;49.246;9.100;2022-09-17T14:32:27;3.13;;;0.60;;
14118;SDS011;7138;49.246;9.100;2022-09-17T14:35:11;5.25;;;0.90;;
14118;SDS011;7138;49.246;9.100;2022-09-17T14:37:41;2.33;;;0.65;;
14118;SDS011;7138;49.246;9.100;2022-09-17T14:40:15;4.20;;;0.73;;
14118;SDS011;7138;49.246;9.100;2022-09-17T14:42:44;5.60;;;1.08;;
14118;SDS011;7138;49.246;9.100;2022-09-17T14:45:14;4.20;;;0.80;;
14118;SDS011;7138;49.246;9.100;2022-09-17T14:47:45;3.45;;;0.70;;
14118;SDS011;7138;49.246;9.100;2022-09-17T14:50:21;3.03;;;0.88;;
14118;SDS011;7138;49.246;9.100;2022-09-17T14:52:50;3.17;;;0.70;;
14118;SDS011;7138;49.246;9.100;2022-09-17T14:55:20;3.95;;;0.90;;
14118;SDS011;7138;49.246;9.100;2022-09-17T14:57:49;2.97;;;0.70;;
14118;SDS011;7138;49.246;9.100;2022-09-17T15:00:21;4.80;;;0.90;;
14118;SDS011;7138;49.246;9.100;2022-09-17T15:02:50;4.53;;;0.77;;
14118;SDS011;7138;49.246;9.100;2022-09-17T15:05:26;3.17;;;0.60;;
14118;SDS011;7138;49.246;9.100;2022-09-17T15:10:33;5.07;;;1.00;;
14118;SDS011;7138;49.246;9.100;2022-09-17T15:13:03;6.18;;;0.70;;
14118;SDS011;7138;49.246;9.100;2022-09-17T15:15:37;3.22;;;0.77;;
14118;SDS011;7138;49.246;9.100;2022-09-17T15:18:04;5.30;;;1.00;;
14118;SDS011;7138;49.246;9.100;2022-09-17T15:20:30;4.03;;;1.23;;
14118;SDS011;7138;49.246;9.100;2022-09-17T15:22:59;3.42;;;0.75;;
14118;SDS011;7138;49.246;9.100;2022-09-17T15:25:39;2.85;;;0.68;;
14118;SDS011;7138;49.246;9.100;2022-09-17T15:28:12;2.47;;;0.50;;
14118;SDS011;7138;49.246;9.100;2022-09-17T15:30:52;3.00;;;0.50;;
14118;SDS011;7138;49.246;9.100;2022-09-17T15:33:18;4.30;;;0.73;;
14118;SDS011;7138;49.246;9.100;2022-09-17T15:35:56;4.72;;;0.43;;
14118;SDS011;7138;49.246;9.100;2022-09-17T15:38:36;3.20;;;0.70;;
14118;SDS011;7138;49.246;9.100;2022-09-17T15:41:25;3.20;;;0.63;;
14118;SDS011;7138;49.246;9.100;2022-09-17T15:46:48;6.63;;;0.90;;
14118;SDS011;7138;49.246;9.100;2022-09-17T15:49:31;3.42;;;0.50;;
14118;SDS011;7138;49.246;9.100;2022-09-17T15:52:21;3.03;;;0.52;;
14118;SDS011;7138;49.246;9.100;2022-09-17T15:54:53;3.00;;;0.60;;
14118;SDS011;7138;49.246;9.100;2022-09-17T15:57:20;2.13;;;0.57;;
14118;SDS011;7138;49.246;9.100;2022-09-17T15:59:48;3.72;;;0.50;;
14118;SDS011;7138;49.246;9.100;2022-09-17T16:02:23;4.25;;;0.70;;
14118;SDS011;7138;49.246;9.100;2022-09-17T16:04:58;3.72;;;0.60;;
14118;SDS011;7138;49.246;9.100;2022-09-17T16:08:16;3.45;;;0.55;;